Time;durP1;ratioP1;P1;durP2;ratioP2;P2;SDS_P1;SDS_P2;PMS_P1;PMS_P2;Temp;Humidity;BMP_temperature;BMP_pressure;BME280_temperature;BME280_humidity;BME280_pressure;Samples;Min_cycle;Max_cycle;Signal;HPM_P1;HPM_P2
2022/11/04 00:02:03;;;;;;;14.87;11.47;;;;;;;15.03;65.36;99768.50;5191811;27;20200;-66
2022/11/04 00:04:30;;;;;;;16.77;11.60;;;;;;;14.91;65.56;99772.13;5192191;27;20218;-66
2022/11/04 00:06:57;;;;;;;14.13;10.10;;;;;;;14.81;65.27;99775.28;5191321;27;20620;-66
2022/11/04 00:09:26;;;;;;;24.00;12.00;;;;;;;14.71;65.77;99769.56;5191723;27;20616;-66
2022/11/04 00:14:37;;;;;;;17.63;11.27;;;;;;;14.66;66.61;99760.56;5191773;27;20289;-66
2022/11/04 00:17:21;;;;;;;14.13;10.63;;;;;;;14.65;66.79;99765.09;5175219;27;20245;-65
2022/11/04 00:30:54;;;;;;;15.87;10.53;;;;;;;14.52;67.27;99767.84;5156688;27;20187;-66
2022/11/04 00:33:24;;;;;;;12.33;10.57;;;;;;;14.42;67.71;99770.16;5155897;27;20221;-66
2022/11/04 00:35:52;;;;;;;11.30;10.10;;;;;;;14.38;67.47;99771.63;5157482;27;20272;-67
2022/11/04 00:38:19;;;;;;;14.80;11.10;;;;;;;14.38;67.53;99773.47;5156525;27;20251;-67
2022/11/04 00:40:45;;;;;;;15.40;10.07;;;;;;;14.28;67.85;99765.91;5156178;27;20717;-66
2022/11/04 00:43:12;;;;;;;16.17;11.13;;;;;;;14.20;68.32;99773.31;5156355;27;20257;-66
2022/11/04 00:45:41;;;;;;;17.27;11.23;;;;;;;14.15;68.51;99768.63;5155958;27;20185;-66
2022/11/04 00:48:08;;;;;;;15.17;11.83;;;;;;;14.13;69.16;99768.00;5155872;27;20630;-66
2022/11/04 00:50:36;;;;;;;15.10;11.53;;;;;;;14.17;68.58;99773.75;5155895;27;20189;-66
2022/11/04 00:53:03;;;;;;;18.60;11.73;;;;;;;14.14;68.38;99774.19;5156142;27;20228;-65
2022/11/04 00:55:30;;;;;;;15.43;11.77;;;;;;;14.08;68.61;99783.84;5156503;27;20196;-66
2022/11/04 00:57:58;;;;;;;16.47;12.63;;;;;;;13.89;69.05;99770.56;5155781;27;20253;-66
2022/11/04 01:00:24;;;;;;;14.60;11.73;;;;;;;13.73;69.71;99763.81;5156011;27;20226;-66
2022/11/04 01:02:51;;;;;;;15.77;12.03;;;;;;;13.73;69.87;99771.03;5155727;27;20201;-66
2022/11/04 01:05:18;;;;;;;17.73;11.30;;;;;;;13.59;70.70;99764.06;5155857;27;20320;-67
2022/11/04 01:07:46;;;;;;;19.93;11.90;;;;;;;13.45;71.17;99770.47;5155597;27;20193;-66
2022/11/04 01:10:13;;;;;;;14.63;12.77;;;;;;;13.26;71.98;99766.78;5155736;27;20245;-67
2022/11/04 01:12:39;;;;;;;16.47;12.37;;;;;;;13.16;72.54;99763.72;5159066;27;20228;-66
2022/11/04 01:15:07;;;;;;;16.80;12.17;;;;;;;13.06;72.58;99765.97;5176902;27;20252;-66
2022/11/04 01:17:33;;;;;;;15.67;12.50;;;;;;;12.97;71.21;99766.34;5155806;27;20664;-66
2022/11/04 01:20:00;;;;;;;25.70;14.50;;;;;;;12.89;70.46;99762.03;5155477;27;20573;-66
2022/11/04 01:22:26;;;;;;;19.13;12.93;;;;;;;12.75;70.80;99763.06;5155310;27;20580;-66
2022/11/04 01:24:54;;;;;;;17.43;13.07;;;;;;;12.71;71.01;99761.81;5155424;27;20664;-66
2022/11/04 01:27:21;;;;;;;19.43;13.40;;;;;;;12.67;70.89;99768.59;5154943;27;20213;-66
2022/11/04 01:29:48;;;;;;;18.73;13.27;;;;;;;12.62;71.16;99756.88;5167268;27;20252;-66
2022/11/04 01:32:14;;;;;;;18.30;13.23;;;;;;;12.53;71.36;99758.91;5175892;27;20218;-66
2022/11/04 01:34:41;;;;;;;16.77;12.97;;;;;;;12.54;71.48;99759.75;5176021;27;20625;-66
2022/11/04 01:37:08;;;;;;;20.40;13.33;;;;;;;12.52;71.99;99759.94;5175400;27;20185;-66
2022/11/04 01:39:34;;;;;;;20.17;12.80;;;;;;;12.47;71.97;99759.72;5175870;27;20213;-66
2022/11/04 01:42:03;;;;;;;14.10;12.63;;;;;;;12.47;71.76;99764.22;5175628;27;20735;-66
2022/11/04 01:44:55;;;;;;;18.77;11.70;;;;;;;12.49;71.79;99752.34;5176176;27;20192;-66
2022/11/04 01:47:28;;;;;;;19.67;13.17;;;;;;;12.48;71.85;99756.03;5156566;27;20248;-66
2022/11/04 01:50:00;;;;;;;21.83;13.63;;;;;;;12.52;71.52;99745.78;5176147;27;20270;-67
2022/11/04 01:52:32;;;;;;;21.07;13.27;;;;;;;12.56;71.34;99747.84;5176525;27;20244;-66
2022/11/04 01:55:05;;;;;;;18.40;12.57;;;;;;;12.60;71.31;99746.41;5176207;27;20299;-66
2022/11/04 01:57:38;;;;;;;15.87;13.40;;;;;;;12.57;71.14;99746.81;5175519;27;20659;-66
2022/11/04 02:00:08;;;;;;;20.57;13.23;;;;;;;12.57;71.82;99752.16;5176084;27;20180;-66
2022/11/04 02:02:37;;;;;;;22.30;12.73;;;;;;;12.57;71.93;99748.69;5175260;27;20707;-67
2022/11/04 02:05:04;;;;;;;23.80;13.87;;;;;;;12.57;72.10;99738.81;5175291;27;20185;-67
2022/11/04 02:07:31;;;;;;;19.77;13.30;;;;;;;12.56;72.11;99731.88;5175748;27;20187;-67
2022/11/04 02:09:58;;;;;;;20.20;13.70;;;;;;;12.59;71.94;99742.13;5174988;27;20619;-67
2022/11/04 02:15:11;;;;;;;19.60;14.23;;;;;;;12.53;71.85;99726.94;5174480;27;20180;-67
2022/11/04 02:18:10;;;;;;;20.87;14.70;;;;;;;12.56;72.09;99726.53;5154274;27;20222;-66
2022/11/04 02:20:50;;;;;;;20.83;14.67;;;;;;;12.56;71.96;99720.38;5154675;27;20185;-67
2022/11/04 02:23:44;;;;;;;25.73;15.07;;;;;;;12.47;71.84;99718.94;5154492;27;20185;-66
2022/11/04 02:26:44;;;;;;;25.63;15.47;;;;;;;12.39;72.23;99703.97;5154236;27;20177;-67
2022/11/04 02:29:27;;;;;;;23.27;15.80;;;;;;;12.33;72.69;99706.63;5161124;27;20193;-67
2022/11/04 02:32:01;;;;;;;27.90;16.33;;;;;;;12.30;72.81;99715.00;5175438;27;20271;-66
2022/11/04 02:34:40;;;;;;;24.90;16.03;;;;;;;12.20;73.39;99710.06;5175190;27;20630;-66
2022/11/04 02:37:13;;;;;;;34.27;17.40;;;;;;;12.21;73.36;99713.56;5176069;27;20188;-67
2022/11/04 02:39:51;;;;;;;28.30;17.37;;;;;;;12.29;72.95;99708.84;5174695;27;20271;-66
2022/11/04 02:42:27;;;;;;;24.63;16.60;;;;;;;12.29;72.63;99708.84;5175388;27;20237;-66
2022/11/04 02:45:06;;;;;;;34.67;18.37;;;;;;;12.26;72.66;99708.44;5174984;27;20273;-66
2022/11/04 02:47:37;;;;;;;31.03;17.87;;;;;;;12.11;72.36;99692.63;5175114;27;20187;-66
2022/11/04 02:50:09;;;;;;;27.60;16.53;;;;;;;12.16;72.78;99714.16;5174612;27;20655;-66
2022/11/04 02:52:42;;;;;;;29.13;16.70;;;;;;;12.10;72.47;99711.47;5174871;27;20187;-66
2022/11/04 02:55:16;;;;;;;29.43;17.40;;;;;;;12.02;73.13;99709.81;5175385;27;20187;-66
2022/11/04 02:57:46;;;;;;;29.93;18.33;;;;;;;12.10;72.98;99714.13;5174498;27;20651;-66
2022/11/04 03:00:19;;;;;;;27.77;18.20;;;;;;;12.08;72.77;99706.34;5174493;27;20268;-65
2022/11/04 03:02:51;;;;;;;29.67;18.57;;;;;;;12.05;72.53;99701.41;5174257;27;20826;-66
2022/11/04 03:05:21;;;;;;;33.13;17.20;;;;;;;12.06;72.25;99703.06;5174320;27;20716;-66
2022/11/04 03:07:51;;;;;;;36.50;18.00;;;;;;;11.96;72.38;99702.59;5175150;27;20192;-66
2022/11/04 03:10:30;;;;;;;28.30;16.97;;;;;;;11.84;73.24;99696.22;5174756;27;20180;-66
2022/11/04 03:13:04;;;;;;;37.70;17.43;;;;;;;11.82;73.75;99703.59;5168243;27;20253;-67
2022/11/04 03:15:37;;;;;;;35.13;17.13;;;;;;;11.87;73.53;99703.81;5156805;27;20247;-66
2022/11/04 03:18:13;;;;;;;31.60;17.87;;;;;;;11.89;73.33;99708.94;5175349;27;20188;-66
2022/11/04 03:20:41;;;;;;;29.40;18.63;;;;;;;11.83;73.81;99707.88;5174188;27;20596;-67
2022/11/04 03:23:09;;;;;;;31.53;18.67;;;;;;;11.77;74.29;99705.19;5173834;27;20646;-67
2022/11/04 03:25:40;;;;;;;28.70;18.37;;;;;;;11.60;75.09;99707.34;5174346;27;20192;-66
2022/11/04 03:28:22;;;;;;;30.03;18.77;;;;;;;11.50;75.53;99703.38;5174401;27;20251;-67
2022/11/04 03:30:54;;;;;;;31.90;20.17;;;;;;;11.39;76.07;99717.25;5153276;27;20244;-66
2022/11/04 03:33:27;;;;;;;39.30;19.13;;;;;;;11.33;76.50;99710.88;5153321;27;20208;-65
2022/11/04 03:35:54;;;;;;;39.30;22.13;;;;;;;11.24;76.65;99706.75;5153798;27;20181;-65
2022/11/04 03:38:22;;;;;;;38.20;21.03;;;;;;;11.22;77.40;99723.91;5153469;27;20191;-65
2022/11/04 03:40:49;;;;;;;35.70;22.10;;;;;;;11.22;77.70;99721.25;5153204;27;20237;-66
2022/11/04 03:43:20;;;;;;;36.37;20.37;;;;;;;11.19;77.79;99719.75;5152611;27;20618;-65
2022/11/04 03:45:48;;;;;;;34.23;21.70;;;;;;;11.21;77.80;99712.44;5153446;27;20243;-66
2022/11/04 03:48:16;;;;;;;42.97;22.20;;;;;;;11.15;77.62;99715.84;5153212;27;20195;-66
2022/11/04 03:50:46;;;;;;;30.23;20.47;;;;;;;11.13;78.42;99712.59;5152590;27;20196;-66
2022/11/04 03:53:16;;;;;;;35.53;21.67;;;;;;;11.14;77.85;99713.41;5153993;27;20306;-66
2022/11/04 03:55:53;;;;;;;37.73;22.77;;;;;;;11.21;78.12;99716.91;5152919;27;20255;-66
2022/11/04 03:58:29;;;;;;;30.53;20.20;;;;;;;11.25;77.94;99708.38;5153615;27;20182;-67
2022/11/04 04:01:03;;;;;;;34.00;19.93;;;;;;;11.23;78.74;99705.06;5157134;27;20235;-67
2022/11/04 04:03:41;;;;;;;36.13;21.73;;;;;;;11.30;77.84;99711.25;5157194;27;20187;-66
2022/11/04 04:06:15;;;;;;;37.20;20.87;;;;;;;11.30;78.14;99711.25;5157522;27;20192;-66
2022/11/04 04:08:46;;;;;;;33.63;20.27;;;;;;;10.98;78.07;99682.63;5156746;27;20634;-65
2022/11/04 04:11:18;;;;;;;30.97;20.20;;;;;;;11.11;78.26;99709.28;5156812;27;20627;-66
2022/11/04 04:13:52;;;;;;;35.67;19.63;;;;;;;11.11;77.54;99711.94;5170339;27;20621;-66
2022/11/04 04:16:26;;;;;;;34.60;20.17;;;;;;;11.06;77.96;99714.38;5168344;27;20184;-67
2022/11/04 04:18:58;;;;;;;39.23;21.10;;;;;;;11.04;77.80;99705.78;5156350;27;20574;-66
2022/11/04 04:21:30;;;;;;;34.80;19.63;;;;;;;11.02;77.82;99703.31;5156868;27;20185;-66
2022/11/04 04:29:32;;;;;;;32.23;18.70;;;;;;;10.95;78.26;99706.94;5166059;27;20242;-67
2022/11/04 04:32:00;;;;;;;33.10;19.77;;;;;;;10.98;77.92;99711.03;5177166;27;20611;-67
2022/11/04 04:34:31;;;;;;;33.87;19.97;;;;;;;10.96;78.11;99714.69;5176752;27;20311;-68
2022/11/04 04:37:02;;;;;;;29.13;19.53;;;;;;;10.98;78.27;99708.38;5177256;27;20231;-68
2022/11/04 04:45:05;;;;;;;33.40;18.77;;;;;;;11.12;76.67;99708.28;5176789;27;20310;-68
2022/11/04 04:47:37;;;;;;;39.47;19.73;;;;;;;11.11;77.10;99706.63;5176871;27;20196;-68
2022/11/04 04:50:07;;;;;;;32.10;19.50;;;;;;;11.12;77.29;99715.44;5177429;27;20182;-68
2022/11/04 04:52:37;;;;;;;39.30;19.00;;;;;;;11.11;77.13;99711.13;5176797;27;20649;-68
2022/11/04 04:55:05;;;;;;;29.90;19.13;;;;;;;11.13;77.29;99712.59;5176503;27;20199;-67
2022/11/04 04:57:31;;;;;;;38.60;18.73;;;;;;;11.09;77.08;99716.66;5176854;27;20246;-68
2022/11/04 04:59:58;;;;;;;33.50;17.97;;;;;;;11.07;77.08;99708.06;5176221;27;20186;-68
2022/11/04 05:02:25;;;;;;;35.57;18.77;;;;;;;11.05;77.17;99720.69;5176663;27;20199;-70
2022/11/04 05:04:52;;;;;;;37.23;18.70;;;;;;;11.12;77.53;99716.25;5176247;27;20190;-70
2022/11/04 05:07:20;;;;;;;34.73;18.97;;;;;;;11.26;77.85;99710.00;5175575;27;20657;-71
2022/11/04 05:09:46;;;;;;;40.53;18.63;;;;;;;11.48;79.52;99714.25;5173666;27;21365;-71
2022/11/04 05:12:13;;;;;;;27.23;16.30;;;;;;;11.63;78.11;99709.63;5175857;27;20219;-71
2022/11/04 05:14:40;;;;;;;28.17;17.70;;;;;;;11.73;76.50;99718.09;5163519;27;20215;-70
2022/11/04 05:17:06;;;;;;;26.17;16.60;;;;;;;11.75;76.86;99713.38;5176395;27;20618;-72
2022/11/04 05:19:33;;;;;;;29.90;17.17;;;;;;;12.15;77.51;99717.00;5170597;27;20199;-74
2022/11/04 05:22:00;;;;;;;34.27;18.47;;;;;;;12.36;73.30;99725.66;5173892;27;20256;-74
2022/11/04 05:24:28;;;;;;;35.33;18.47;;;;;;;12.43;72.50;99731.00;5174476;27;20549;-73
2022/11/04 05:26:55;;;;;;;40.77;19.93;;;;;;;12.46;72.26;99734.09;5173422;27;20679;-73
2022/11/04 05:29:22;;;;;;;33.87;19.73;;;;;;;12.51;72.92;99738.81;5165872;27;20197;-71
2022/11/04 05:31:48;;;;;;;27.03;18.33;;;;;;;12.55;72.64;99732.06;5149528;27;20191;-73
2022/11/04 05:34:15;;;;;;;40.07;19.37;;;;;;;12.51;71.85;99739.66;5151127;27;20227;-74
2022/11/04 05:36:42;;;;;;;34.80;18.40;;;;;;;12.50;71.90;99740.66;5150573;27;20202;-72
2022/11/04 05:39:12;;;;;;;43.23;20.33;;;;;;;12.46;72.79;99747.41;5150750;27;20185;-76
2022/11/04 05:41:40;;;;;;;38.10;18.53;;;;;;;12.51;72.58;99750.31;5150629;27;20208;-73
2022/11/04 05:44:09;;;;;;;37.63;20.73;;;;;;;12.46;71.87;99758.06;5157242;27;20195;-74
2022/11/04 05:46:35;;;;;;;34.20;20.33;;;;;;;12.40;72.37;99753.56;5171474;27;20729;-74
2022/11/04 05:49:02;;;;;;;29.53;20.83;;;;;;;12.44;71.58;99765.44;5160755;27;20577;-74
2022/11/04 05:51:29;;;;;;;37.53;19.40;;;;;;;12.26;72.61;99743.91;5152685;27;20290;-72
2022/11/04 05:53:56;;;;;;;42.97;21.37;;;;;;;12.36;73.36;99757.63;5151507;27;20312;-76
2022/11/04 05:56:23;;;;;;;41.00;19.47;;;;;;;12.16;72.52;99739.97;5150637;27;20189;-73
2022/11/04 05:58:51;;;;;;;33.83;19.73;;;;;;;12.24;72.79;99759.25;5151877;27;20192;-75
2022/11/04 06:01:26;;;;;;;44.77;19.47;;;;;;;12.34;73.35;99754.38;5150712;27;20189;-74
2022/11/04 06:03:54;;;;;;;41.83;19.57;;;;;;;12.49;72.85;99757.66;5151316;27;20199;-71
2022/11/04 06:06:21;;;;;;;34.63;19.00;;;;;;;12.68;73.30;99761.38;5152595;27;20705;-73
2022/11/04 06:08:50;;;;;;;31.77;18.40;;;;;;;12.68;71.65;99772.88;5151628;27;20200;-70
2022/11/04 06:11:17;;;;;;;44.30;19.77;;;;;;;12.64;71.50;99776.16;5151980;27;20193;-68
2022/11/04 06:13:43;;;;;;;40.93;20.17;;;;;;;12.63;71.42;99785.16;5165050;27;20228;-69
2022/11/04 06:16:11;;;;;;;43.30;19.87;;;;;;;12.65;71.34;99780.44;5174093;27;20335;-68
2022/11/04 06:18:38;;;;;;;31.87;18.63;;;;;;;12.63;71.60;99780.66;5172091;27;20193;-72
2022/11/04 06:21:10;;;;;;;57.27;20.40;;;;;;;12.65;71.71;99786.59;5173199;27;20191;-73
2022/11/04 06:23:37;;;;;;;31.77;16.87;;;;;;;12.64;72.22;99784.97;5173099;27;20188;-71
2022/11/04 06:26:03;;;;;;;27.93;16.37;;;;;;;12.59;72.58;99790.09;5173978;27;20256;-71
2022/11/04 06:28:30;;;;;;;24.50;16.10;;;;;;;12.54;72.55;99779.19;5174411;27;20188;-71
2022/11/04 06:30:57;;;;;;;26.90;15.57;;;;;;;12.57;73.21;99784.13;5169567;27;20201;-69
2022/11/04 06:33:25;;;;;;;28.37;15.60;;;;;;;12.71;72.80;99787.66;5152352;27;20279;-73
2022/11/04 06:35:52;;;;;;;34.43;16.53;;;;;;;12.72;73.00;99784.78;5151661;27;20249;-69
2022/11/04 06:38:19;;;;;;;26.97;16.13;;;;;;;12.84;72.83;99785.00;5152572;27;20197;-69
2022/11/04 06:40:46;;;;;;;43.73;20.07;;;;;;;12.97;72.10;99785.88;5152164;27;20657;-73
2022/11/04 06:43:12;;;;;;;38.63;16.60;;;;;;;13.02;72.61;99790.59;5152552;27;20246;-70
2022/11/04 06:45:39;;;;;;;29.60;16.63;;;;;;;13.09;71.66;99786.06;5162111;27;20191;-70
2022/11/04 06:48:06;;;;;;;32.53;16.70;;;;;;;13.05;71.38;99783.00;5174939;27;20199;-72
2022/11/04 06:50:34;;;;;;;33.37;18.47;;;;;;;13.03;71.81;99787.72;5174131;27;20203;-71
2022/11/04 06:53:01;;;;;;;58.13;20.17;;;;;;;13.04;71.54;99784.03;5174266;27;20212;-68
2022/11/04 06:55:28;;;;;;;52.27;20.33;;;;;;;13.10;71.81;99793.03;5174291;27;20643;-69
2022/11/04 06:57:54;;;;;;;65.17;21.80;;;;;;;13.20;71.74;99794.31;5169523;27;20204;-71
2022/11/04 07:00:21;;;;;;;36.50;21.07;;;;;;;13.20;71.25;99799.63;5173211;27;20191;-70
2022/11/04 07:02:48;;;;;;;30.63;19.77;;;;;;;13.26;71.40;99795.31;5174535;27;20193;-70
2022/11/04 07:05:15;;;;;;;42.23;22.07;;;;;;;13.29;71.53;99792.22;5172993;27;20192;-73
2022/11/04 07:07:43;;;;;;;34.20;21.60;;;;;;;13.29;70.85;99793.06;5173303;27;20623;-69
2022/11/04 07:10:10;;;;;;;38.07;19.97;;;;;;;13.44;71.15;99793.66;5174486;27;20192;-70
2022/11/04 07:12:38;;;;;;;55.67;22.40;;;;;;;13.58;70.31;99799.78;5158701;27;20311;-70
2022/11/04 07:15:06;;;;;;;36.30;20.53;;;;;;;13.57;69.95;99785.66;5174473;27;20216;-74
2022/11/04 07:17:33;;;;;;;110.63;27.07;;;;;;;13.64;70.52;99791.78;5169308;27;20197;-70
2022/11/04 07:19:59;;;;;;;42.87;21.33;;;;;;;13.76;70.34;99790.09;5153685;27;20193;-73
2022/11/04 07:22:26;;;;;;;41.67;19.60;;;;;;;13.81;69.57;99782.28;5153438;27;20245;-71
2022/11/04 07:24:54;;;;;;;47.23;20.93;;;;;;;13.93;69.12;99785.16;5153301;27;20201;-73
2022/11/04 07:27:21;;;;;;;41.53;21.33;;;;;;;13.99;68.47;99779.78;5152797;27;20560;-73
2022/11/04 07:29:48;;;;;;;34.33;21.13;;;;;;;14.07;68.77;99774.19;5173238;27;20197;-72
2022/11/04 07:32:14;;;;;;;33.63;21.10;;;;;;;13.99;68.32;99769.09;5171830;27;20264;-72
2022/11/04 07:34:41;;;;;;;38.27;20.50;;;;;;;14.08;69.01;99767.00;5175680;27;20650;-71
2022/11/04 07:37:08;;;;;;;33.77;19.63;;;;;;;14.19;68.47;99766.34;5177929;27;20188;-71
2022/11/04 07:39:34;;;;;;;34.87;19.97;;;;;;;14.25;68.38;99760.19;5178093;27;20192;-73
2022/11/04 07:42:02;;;;;;;40.33;19.07;;;;;;;14.28;67.85;99752.56;5177167;27;20195;-76
2022/11/04 07:44:29;;;;;;;29.53;19.20;;;;;;;14.31;68.00;99753.97;5176434;27;20196;-73
2022/11/04 07:46:57;;;;;;;35.27;19.53;;;;;;;14.36;68.70;99760.34;5176319;27;20196;-73
2022/11/04 07:49:24;;;;;;;45.27;21.40;;;;;;;14.46;68.11;99749.97;5175915;27;20236;-73
2022/11/04 07:51:51;;;;;;;34.47;20.47;;;;;;;14.47;67.81;99748.97;5177348;27;20571;-73
2022/11/04 07:54:18;;;;;;;35.30;19.53;;;;;;;14.46;68.05;99741.97;5175378;27;20220;-72
2022/11/04 07:56:45;;;;;;;34.53;19.80;;;;;;;14.47;68.71;99740.94;5177120;27;20200;-72
2022/11/04 07:59:13;;;;;;;41.33;21.10;;;;;;;14.45;69.24;99737.66;5176027;27;20200;-72
2022/11/04 08:01:40;;;;;;;36.80;20.43;;;;;;;14.51;69.34;99736.81;5176238;27;20578;-70
2022/11/04 08:04:07;;;;;;;50.93;21.50;;;;;;;14.64;68.99;99730.53;5175860;27;20228;-72
2022/11/04 08:06:34;;;;;;;43.27;20.33;;;;;;;14.77;68.52;99725.94;5177489;27;20260;-73
2022/11/04 08:09:00;;;;;;;34.30;20.20;;;;;;;14.64;68.91;99696.63;5176787;27;20189;-72
2022/11/04 08:11:27;;;;;;;36.87;20.27;;;;;;;14.83;68.84;99714.34;5176595;27;20185;-71
2022/11/04 08:13:55;;;;;;;33.23;21.03;;;;;;;14.91;68.77;99698.03;5176410;27;20717;-73
2022/11/04 08:16:25;;;;;;;38.07;21.03;;;;;;;15.20;69.20;99715.28;5176725;27;20245;-74
2022/11/04 08:18:53;;;;;;;38.53;21.47;;;;;;;15.22;69.28;99707.84;5165409;27;20186;-73
2022/11/04 08:21:20;;;;;;;41.10;21.93;;;;;;;15.37;69.58;99709.19;5155793;27;20234;-72
2022/11/04 08:23:49;;;;;;;38.80;22.83;;;;;;;15.41;69.91;99702.31;5155906;27;20224;-72
2022/11/04 08:26:18;;;;;;;36.97;21.00;;;;;;;15.35;70.76;99692.50;5155965;27;20595;-73
2022/11/04 08:28:45;;;;;;;40.43;21.93;;;;;;;15.56;70.55;99697.44;5158752;27;20226;-71
2022/11/04 08:31:15;;;;;;;44.70;22.87;;;;;;;15.68;69.06;99692.97;5176568;27;20652;-72
2022/11/04 08:33:43;;;;;;;46.80;22.13;;;;;;;15.81;69.24;99692.81;5175826;27;20197;-70
2022/11/04 08:36:14;;;;;;;40.93;23.93;;;;;;;16.01;68.77;99689.91;5176223;27;20280;-69
2022/11/04 08:38:40;;;;;;;51.10;23.50;;;;;;;16.18;68.12;99692.75;5175075;27;20241;-70
2022/11/04 08:41:09;;;;;;;41.60;22.53;;;;;;;16.30;66.49;99697.13;5176264;27;20189;-69
2022/11/04 08:43:36;;;;;;;42.67;23.20;;;;;;;16.48;66.84;99685.53;5176234;27;20241;-70
2022/11/04 08:46:06;;;;;;;44.00;21.33;;;;;;;16.54;65.45;99692.69;5175953;27;20197;-72
2022/11/04 08:48:34;;;;;;;39.53;21.67;;;;;;;16.23;67.13;99679.47;5175722;27;20192;-71
2022/11/04 08:51:03;;;;;;;40.57;20.60;;;;;;;16.47;67.24;99665.97;5176259;27;20249;-70
2022/11/04 08:53:30;;;;;;;31.10;18.97;;;;;;;16.81;65.73;99675.09;5175965;27;20192;-73
2022/11/04 08:55:57;;;;;;;35.00;18.47;;;;;;;17.04;64.73;99677.81;5175539;27;20218;-71
2022/11/04 08:58:24;;;;;;;35.83;19.27;;;;;;;17.25;63.43;99670.00;5177189;27;20194;-71
2022/11/04 09:00:51;;;;;;;36.17;18.47;;;;;;;17.14;63.10;99635.09;5175371;27;20282;-72
2022/11/04 09:03:18;;;;;;;37.60;19.53;;;;;;;17.40;62.06;99669.53;5175341;27;20611;-68
2022/11/04 09:05:47;;;;;;;38.50;19.87;;;;;;;17.59;62.53;99666.47;5175972;27;20198;-69
2022/11/04 09:08:17;;;;;;;34.07;20.03;;;;;;;17.81;61.83;99663.97;5175852;27;20236;-69
2022/11/04 09:10:44;;;;;;;35.87;19.70;;;;;;;18.03;61.79;99657.72;5175821;27;20665;-70
2022/11/04 09:13:11;;;;;;;41.50;19.70;;;;;;;18.23;60.74;99658.09;5176268;27;20220;-67
2022/11/04 09:15:38;;;;;;;43.23;20.77;;;;;;;18.47;60.46;99658.81;5175636;27;20208;-66
2022/11/04 09:18:06;;;;;;;29.47;20.13;;;;;;;18.78;60.42;99650.19;5172001;27;20242;-68
2022/11/04 09:20:33;;;;;;;38.43;20.73;;;;;;;19.14;58.15;99641.56;5154522;27;20190;-69
2022/11/04 09:23:00;;;;;;;40.90;21.23;;;;;;;19.07;58.13;99652.53;5155477;27;20193;-71
2022/11/04 09:25:28;;;;;;;33.27;20.40;;;;;;;19.22;58.83;99641.97;5154714;27;20198;-69
2022/11/04 09:27:55;;;;;;;33.67;20.27;;;;;;;19.44;57.52;99631.28;5155051;27;20191;-68
2022/11/04 09:30:21;;;;;;;26.90;19.80;;;;;;;19.76;57.15;99632.19;5171663;27;20189;-71
2022/11/04 09:32:48;;;;;;;29.30;19.53;;;;;;;20.05;55.90;99630.94;5174811;27;20260;-67
2022/11/04 09:35:16;;;;;;;29.87;20.37;;;;;;;20.20;55.73;99633.78;5175265;27;20265;-69
2022/11/04 09:37:43;;;;;;;37.03;20.73;;;;;;;20.35;55.10;99628.56;5175142;27;20196;-68
2022/11/04 09:40:15;;;;;;;31.07;20.47;;;;;;;20.50;55.11;99626.00;5176043;27;20192;-70
2022/11/04 09:42:56;;;;;;;33.47;20.50;;;;;;;20.52;54.20;99624.69;5175575;27;20245;-69
2022/11/04 09:45:27;;;;;;;24.70;18.27;;;;;;;20.13;55.14;99614.28;5176452;27;20188;-68
2022/11/04 09:48:02;;;;;;;32.40;18.60;;;;;;;20.17;55.57;99610.03;5175410;27;20637;-69
2022/11/04 09:50:34;;;;;;;27.03;18.97;;;;;;;20.30;54.29;99598.84;5176037;27;20180;-69
2022/11/04 09:53:07;;;;;;;31.57;20.17;;;;;;;20.27;54.45;99596.63;5175338;27;20181;-68
2022/11/04 09:55:41;;;;;;;31.87;20.20;;;;;;;20.19;54.11;99589.00;5175285;27;20243;-68
2022/11/04 09:58:13;;;;;;;27.67;19.13;;;;;;;19.95;55.80;99590.34;5174745;27;20176;-67
2022/11/04 10:00:43;;;;;;;27.37;19.57;;;;;;;20.27;54.33;99575.88;5176445;27;20192;-66
2022/11/04 10:03:24;;;;;;;27.13;18.90;;;;;;;20.38;53.90;99576.78;5175564;27;20219;-70
2022/11/04 10:06:08;;;;;;;26.93;19.23;;;;;;;20.44;52.61;99570.34;5175054;27;20647;-68
2022/11/04 10:08:52;;;;;;;33.13;19.93;;;;;;;20.24;53.72;99564.78;5175038;27;20184;-68
2022/11/04 10:11:28;;;;;;;32.73;19.97;;;;;;;19.94;53.67;99564.47;5168390;27;20253;-68
2022/11/04 10:14:15;;;;;;;29.93;18.80;;;;;;;20.01;54.29;99559.69;5168462;27;20220;-67
2022/11/04 10:16:54;;;;;;;31.03;18.73;;;;;;;20.12;53.95;99545.25;5174552;27;20239;-69
2022/11/04 10:19:35;;;;;;;35.07;19.53;;;;;;;20.14;53.73;99535.81;5159672;27;20264;-69
2022/11/04 10:22:08;;;;;;;27.50;18.83;;;;;;;20.02;54.15;99540.53;5153156;27;20189;-70
2022/11/04 10:24:41;;;;;;;27.20;17.43;;;;;;;20.12;54.38;99529.06;5153645;27;20186;-69
2022/11/04 10:27:15;;;;;;;26.40;18.53;;;;;;;20.19;53.64;99535.06;5153916;27;20181;-68
2022/11/04 10:29:45;;;;;;;28.60;18.27;;;;;;;19.98;54.08;99525.94;5164844;27;20212;-70
2022/11/04 10:32:15;;;;;;;35.23;24.30;;;;;;;20.07;60.22;99510.94;5172453;27;20724;-71
2022/11/04 10:34:45;;;;;;;35.93;21.37;;;;;;;20.48;56.91;99506.69;5172443;27;20196;-69
2022/11/04 10:37:12;;;;;;;31.97;18.70;;;;;;;20.87;55.07;99510.72;5173324;27;20185;-66
2022/11/04 10:39:44;;;;;;;26.10;18.07;;;;;;;21.14;50.94;99506.00;5174277;27;20188;-67
2022/11/04 10:42:13;;;;;;;24.87;17.80;;;;;;;20.99;52.05;99497.81;5171372;27;20237;-68
2022/11/04 10:44:40;;;;;;;44.33;19.23;;;;;;;21.12;51.97;99491.97;5172301;27;20188;-66
2022/11/04 10:47:19;;;;;;;26.47;17.03;;;;;;;21.45;51.54;99494.25;5172354;27;20193;-68
2022/11/04 10:50:01;;;;;;;19.63;14.83;;;;;;;21.81;51.09;99484.34;5172683;27;20181;-70
2022/11/04 10:52:28;;;;;;;28.60;16.93;;;;;;;22.08;47.86;99490.28;5171464;27;20860;-68
2022/11/04 10:54:55;;;;;;;23.43;17.40;;;;;;;22.05;47.21;99475.41;5172830;27;20196;-66
2022/11/04 10:57:25;;;;;;;26.03;17.07;;;;;;;22.01;47.51;99471.63;5171918;27;20184;-70
2022/11/04 10:59:54;;;;;;;21.33;15.60;;;;;;;22.05;48.50;99458.38;5173107;27;20196;-69
2022/11/04 11:02:44;;;;;;;42.03;17.77;;;;;;;22.08;47.28;99464.06;5172305;27;20188;-69
2022/11/04 11:05:21;;;;;;;20.30;14.70;;;;;;;21.91;48.60;99455.41;5173948;27;20197;-68
2022/11/04 11:07:50;;;;;;;35.33;16.40;;;;;;;21.94;47.47;99457.56;5171271;27;20224;-70
2022/11/04 11:15:44;;;;;;;30.30;18.33;;;;;;;22.30;45.57;99451.03;5083513;28;20211;-70
2022/11/04 11:18:15;;;;;;;26.03;17.83;;;;;;;21.83;46.42;99447.81;5087662;28;20192;-70
2022/11/04 11:26:19;;;;;;;45.47;18.70;;;;;;;21.64;47.45;99430.47;5027103;28;20204;-69
2022/11/04 11:28:55;;;;;;;36.37;19.57;;;;;;;21.62;47.38;99427.22;5029790;28;20193;-68
2022/11/04 11:34:17;;;;;;;30.07;18.63;;;;;;;21.18;48.64;99411.72;5121400;27;20192;-71
2022/11/04 11:39:31;;;;;;;24.97;18.20;;;;;;;21.10;49.28;99406.88;5108679;28;20194;-69
2022/11/04 11:42:01;;;;;;;32.53;17.53;;;;;;;21.07;49.05;99408.19;5108801;28;20243;-69
2022/11/04 11:44:32;;;;;;;27.50;18.77;;;;;;;21.14;49.06;99397.94;5133086;27;20715;-70
2022/11/04 11:49:43;;;;;;;31.47;18.27;;;;;;;20.86;49.87;99401.06;5087795;28;20192;-69
2022/11/04 11:52:25;;;;;;;27.73;17.37;;;;;;;20.87;49.86;99397.31;5088291;28;20191;-68
2022/11/04 11:54:54;;;;;;;27.00;18.20;;;;;;;20.95;49.79;99393.31;5126059;27;20197;-71
2022/11/04 12:03:02;;;;;;;29.57;18.07;;;;;;;20.92;49.13;99351.44;5029110;28;20201;-69
2022/11/04 12:05:39;;;;;;;30.93;19.07;;;;;;;20.98;49.27;99366.56;5029104;28;20592;-71
2022/11/04 12:08:29;;;;;;;28.90;17.27;;;;;;;20.88;49.44;99361.13;5060516;28;20286;-70
2022/11/04 12:11:02;;;;;;;29.07;17.47;;;;;;;20.96;49.55;99357.94;5071030;28;20204;-69
2022/11/04 12:13:37;;;;;;;29.90;18.20;;;;;;;21.04;49.52;99349.31;5173933;27;20305;-69
2022/11/04 12:16:19;;;;;;;30.10;17.43;;;;;;;21.11;48.94;99349.84;5173256;27;20196;-69
2022/11/04 12:19:12;;;;;;;33.93;18.60;;;;;;;21.11;48.90;99344.44;5158461;27;20242;-69
2022/11/04 12:27:25;;;;;;;30.43;17.07;;;;;;;21.07;48.47;99329.06;5091494;28;20203;-69
2022/11/04 12:33:04;;;;;;;37.40;17.97;;;;;;;20.80;49.07;99323.84;5136760;27;20641;-69